createdAt,value
2017-09-20T00:00:59.765Z,8.70
2017-09-20T00:03:29.077Z,8.80
2017-09-20T00:05:58.245Z,8.70
2017-09-20T00:08:26.925Z,8.70
2017-09-20T00:10:55.349Z,8.70
2017-09-20T00:13:24.485Z,8.40
2017-09-20T00:15:52.872Z,8.40
2017-09-20T00:18:21.274Z,8.40
2017-09-20T00:20:49.729Z,8.40
2017-09-20T00:23:18.116Z,8.30
2017-09-20T00:25:46.686Z,8.40
2017-09-20T00:28:15.074Z,8.30
2017-09-20T00:30:43.451Z,8.30
2017-09-20T00:33:12.245Z,8.30
2017-09-20T00:35:40.657Z,8.30
2017-09-20T00:38:09.837Z,8.10
2017-09-20T00:40:39.222Z,8.20
2017-09-20T00:43:07.676Z,8.20
2017-09-20T00:45:36.074Z,8.30
2017-09-20T00:48:04.841Z,8.30
2017-09-20T00:50:33.225Z,8.10
2017-09-20T00:53:01.618Z,8.10
2017-09-20T00:55:30.336Z,8.00
2017-09-20T00:57:58.846Z,8.00
2017-09-20T01:00:27.272Z,8.00
2017-09-20T01:02:55.802Z,8.00
2017-09-20T01:05:24.231Z,8.10
2017-09-20T01:07:52.607Z,8.20
2017-09-20T01:10:21.046Z,8.20
2017-09-20T01:12:49.414Z,8.20
2017-09-20T01:15:18.609Z,8.00
2017-09-20T01:17:47.830Z,8.00
2017-09-20T01:20:28.325Z,8.00
2017-09-20T01:23:08.711Z,7.90
2017-09-20T01:25:37.186Z,7.90
2017-09-20T01:28:05.599Z,8.00
2017-09-20T01:30:34.484Z,8.20
2017-09-20T01:33:03.627Z,7.90
2017-09-20T01:35:32.081Z,7.90
2017-09-20T01:38:00.546Z,8.00
2017-09-20T01:40:29.700Z,8.20
2017-09-20T01:42:58.157Z,8.10
2017-09-20T01:45:26.596Z,8.00
2017-09-20T01:47:55.780Z,8.00
2017-09-20T01:50:24.330Z,8.00
2017-09-20T01:52:52.806Z,8.00
2017-09-20T01:55:21.202Z,8.00
2017-09-20T01:57:49.588Z,7.90
2017-09-20T02:00:18.133Z,7.90
2017-09-20T02:02:46.499Z,8.00
2017-09-20T02:05:14.890Z,8.10
2017-09-20T02:07:43.732Z,8.10
2017-09-20T02:10:12.142Z,8.10
2017-09-20T02:12:40.521Z,8.10
2017-09-20T02:15:09.151Z,8.00
2017-09-20T02:17:37.521Z,8.00
2017-09-20T02:20:06.712Z,7.90
2017-09-20T02:22:35.296Z,7.80
2017-09-20T02:25:03.678Z,7.90
2017-09-20T02:27:32.052Z,8.00
2017-09-20T02:30:00.475Z,7.90
2017-09-20T02:32:29.015Z,7.90
2017-09-20T02:34:57.425Z,7.90
2017-09-20T02:37:25.937Z,8.10
2017-09-20T02:39:55.104Z,8.00
2017-09-20T02:42:23.533Z,8.00
2017-09-20T02:44:52.267Z,7.80
2017-09-20T02:47:20.651Z,7.80
2017-09-20T02:49:49.048Z,7.90
2017-09-20T02:52:18.574Z,7.90
2017-09-20T02:54:46.947Z,7.90
2017-09-20T02:57:16.094Z,7.80
2017-09-20T02:59:44.679Z,7.80
2017-09-20T03:02:13.075Z,7.90
2017-09-20T03:04:41.483Z,7.80
2017-09-20T03:07:10.662Z,7.70
2017-09-20T03:09:40.108Z,7.80
2017-09-20T03:12:08.490Z,7.80
2017-09-20T03:14:36.902Z,7.80
2017-09-20T03:17:05.298Z,7.70
2017-09-20T03:19:33.664Z,7.70
2017-09-20T03:22:02.346Z,7.80
2017-09-20T03:24:30.730Z,7.80
2017-09-20T03:26:59.116Z,7.90
2017-09-20T03:29:27.890Z,7.90
2017-09-20T03:31:56.279Z,7.90
2017-09-20T03:34:24.916Z,7.90
2017-09-20T03:36:53.345Z,7.90
2017-09-20T03:39:21.757Z,7.90
2017-09-20T03:41:50.150Z,7.90
2017-09-20T03:44:18.552Z,7.90
2017-09-20T03:46:46.962Z,7.90
2017-09-20T03:49:15.348Z,7.80
2017-09-20T03:51:44.568Z,7.90
2017-09-20T03:54:13.824Z,7.90
2017-09-20T03:56:42.189Z,7.90
2017-09-20T03:59:10.630Z,8.00
2017-09-20T04:01:39.020Z,7.90
2017-09-20T04:04:07.421Z,7.90
2017-09-20T04:06:35.955Z,8.00
2017-09-20T04:09:04.467Z,8.00
2017-09-20T04:11:33.099Z,7.90
2017-09-20T04:14:01.499Z,7.90
2017-09-20T04:16:30.727Z,8.00
2017-09-20T04:18:59.150Z,8.00
2017-09-20T04:21:27.940Z,8.10
2017-09-20T04:23:56.344Z,8.00
2017-09-20T04:26:25.530Z,7.90
2017-09-20T04:28:54.059Z,7.80
2017-09-20T04:31:22.453Z,7.90
2017-09-20T04:33:51.610Z,8.00
2017-09-20T04:36:20.086Z,8.00
2017-09-20T04:38:48.485Z,8.00
2017-09-20T04:41:16.872Z,8.00
2017-09-20T04:43:45.439Z,8.10
2017-09-20T04:46:13.835Z,8.10
2017-09-20T04:48:42.245Z,8.10
2017-09-20T04:51:10.681Z,8.10
2017-09-20T04:53:39.041Z,8.10
2017-09-20T04:56:08.319Z,8.20
2017-09-20T04:58:37.027Z,8.10
2017-09-20T05:01:06.246Z,8.10
2017-09-20T05:03:34.619Z,8.10
2017-09-20T05:06:03.415Z,8.20
2017-09-20T05:08:31.811Z,8.20
2017-09-20T05:11:00.237Z,8.20
2017-09-20T05:13:28.796Z,8.10
2017-09-20T05:15:57.236Z,8.20
2017-09-20T05:18:25.660Z,8.20
2017-09-20T05:20:54.369Z,8.20
2017-09-20T05:23:22.752Z,8.30
2017-09-20T05:25:52.015Z,8.30
2017-09-20T05:28:20.540Z,8.30
2017-09-20T05:30:49.708Z,8.30
2017-09-20T05:33:18.164Z,8.30
2017-09-20T05:35:46.700Z,8.30
2017-09-20T05:38:16.187Z,8.40
2017-09-20T05:40:44.559Z,8.30
2017-09-20T05:43:12.994Z,8.30
2017-09-20T05:45:41.419Z,8.30
2017-09-20T05:48:09.829Z,8.40
2017-09-20T05:50:38.296Z,8.40
2017-09-20T05:53:06.807Z,8.40
2017-09-20T05:55:35.212Z,8.30
2017-09-20T05:58:04.009Z,8.30
2017-09-20T06:00:32.485Z,8.30
2017-09-20T06:03:00.895Z,8.40
2017-09-20T06:05:29.319Z,8.50
2017-09-20T06:07:57.714Z,8.50
2017-09-20T06:10:26.164Z,8.60
2017-09-20T06:12:54.602Z,8.60
2017-09-20T06:15:23.039Z,8.70
2017-09-20T06:17:51.417Z,8.70
2017-09-20T06:20:20.200Z,8.80
2017-09-20T06:22:48.630Z,8.90
2017-09-20T06:25:17.040Z,8.90
2017-09-20T06:27:46.259Z,9.10
2017-09-20T06:30:14.656Z,9.10
2017-09-20T06:32:43.062Z,9.10
2017-09-20T06:35:12.378Z,9.10
2017-09-20T06:37:40.783Z,9.20
2017-09-20T06:40:09.331Z,9.30
2017-09-20T06:42:37.874Z,9.30
2017-09-20T06:45:06.272Z,9.30
2017-09-20T06:47:35.502Z,9.20
2017-09-20T06:50:04.152Z,9.40
2017-09-20T06:52:32.571Z,9.40
2017-09-20T06:55:01.934Z,9.40
2017-09-20T06:57:30.535Z,9.40
2017-09-20T06:59:59.209Z,9.30
2017-09-20T07:02:27.632Z,9.40
2017-09-20T07:04:56.949Z,9.30
2017-09-20T07:07:25.392Z,9.30
2017-09-20T07:09:53.782Z,9.30
2017-09-20T07:12:22.219Z,9.20
2017-09-20T07:14:50.672Z,9.30
2017-09-20T07:17:19.190Z,9.30
2017-09-20T07:19:47.746Z,9.30
2017-09-20T07:22:17.082Z,9.40
2017-09-20T07:24:45.484Z,9.30
2017-09-20T07:27:14.191Z,9.30
2017-09-20T07:29:43.376Z,9.30
2017-09-20T07:32:12.585Z,9.30
2017-09-20T07:34:41.036Z,9.20
2017-09-20T07:37:10.213Z,9.60
2017-09-20T07:39:38.630Z,9.60
2017-09-20T07:42:09.051Z,9.50
2017-09-20T07:44:37.523Z,9.50
2017-09-20T07:47:05.919Z,9.70
2017-09-20T07:49:36.784Z,9.90
2017-09-20T07:52:06.074Z,9.90
2017-09-20T07:54:34.624Z,10.00
2017-09-20T07:57:03.249Z,10.20
2017-09-20T07:59:31.733Z,10.30
2017-09-20T08:02:00.760Z,10.30
2017-09-20T08:04:29.234Z,10.30
2017-09-20T08:06:58.606Z,10.20
2017-09-20T08:09:27.070Z,10.20
2017-09-20T08:11:56.632Z,10.20
2017-09-20T08:14:25.070Z,10.20
2017-09-20T08:16:53.476Z,10.40
2017-09-20T08:19:22.607Z,10.50
2017-09-20T08:21:51.001Z,10.30
2017-09-20T08:24:19.480Z,10.20
2017-09-20T08:26:48.668Z,10.30
2017-09-20T08:29:17.828Z,10.40
2017-09-20T08:31:46.259Z,10.30
2017-09-20T08:34:15.900Z,10.30
2017-09-20T08:36:44.311Z,10.40
2017-09-20T08:39:12.796Z,10.60
2017-09-20T08:41:41.317Z,10.50
2017-09-20T08:44:10.039Z,10.30
2017-09-20T08:46:38.446Z,10.30
2017-09-20T08:49:06.968Z,10.30
2017-09-20T08:51:35.368Z,10.40
2017-09-20T08:54:04.657Z,10.30
2017-09-20T08:56:33.564Z,10.40
2017-09-20T08:59:02.692Z,10.30
2017-09-20T09:01:31.901Z,10.30
2017-09-20T09:04:00.978Z,10.30
2017-09-20T09:06:29.580Z,10.30
2017-09-20T09:08:58.025Z,10.30
2017-09-20T09:11:27.511Z,10.40
2017-09-20T09:13:56.911Z,10.50
2017-09-20T09:16:25.889Z,10.40
2017-09-20T09:18:54.678Z,10.50
2017-09-20T09:21:23.461Z,10.40
2017-09-20T09:23:52.837Z,10.50
2017-09-20T09:26:21.711Z,10.40
2017-09-20T09:28:50.768Z,10.30
2017-09-20T09:31:19.337Z,10.40
2017-09-20T09:33:47.823Z,10.40
2017-09-20T09:36:16.896Z,10.40
2017-09-20T09:38:46.052Z,10.50
2017-09-20T09:41:15.441Z,10.50
2017-09-20T09:43:43.956Z,10.50
2017-09-20T09:46:12.629Z,10.50
2017-09-20T09:48:41.352Z,10.50
2017-09-20T09:51:10.502Z,10.60
2017-09-20T09:53:38.929Z,10.60
2017-09-20T09:56:08.308Z,10.70
2017-09-20T09:58:38.359Z,10.70
2017-09-20T10:01:07.693Z,10.60
2017-09-20T10:03:36.296Z,10.70
2017-09-20T10:06:05.086Z,10.70
2017-09-20T10:08:33.545Z,10.80
2017-09-20T10:11:02.140Z,10.80
2017-09-20T10:13:30.561Z,10.90
2017-09-20T10:15:59.882Z,10.80
2017-09-20T10:18:28.334Z,10.90
2017-09-20T10:20:57.509Z,10.90
2017-09-20T10:23:26.826Z,10.80
2017-09-20T10:25:56.088Z,10.90
2017-09-20T10:28:24.486Z,10.90
2017-09-20T10:30:52.897Z,11.00
2017-09-20T10:33:23.877Z,11.10
2017-09-20T10:35:53.181Z,11.10
2017-09-20T10:38:21.778Z,11.30
2017-09-20T10:40:51.652Z,11.30
2017-09-20T10:43:20.159Z,11.20
2017-09-20T10:45:48.569Z,11.10
2017-09-20T10:48:17.474Z,11.20
2017-09-20T10:50:46.647Z,11.40
2017-09-20T10:53:16.326Z,11.40
2017-09-20T10:55:45.368Z,11.40
2017-09-20T10:58:14.923Z,11.60
2017-09-20T11:00:45.178Z,11.90
2017-09-20T11:03:15.672Z,11.90
2017-09-20T11:05:46.201Z,12.00
2017-09-20T11:08:15.145Z,11.90
2017-09-20T11:10:48.501Z,12.10
2017-09-20T11:13:20.344Z,12.10
2017-09-20T11:15:49.126Z,12.30
2017-09-20T11:18:17.548Z,12.40
2017-09-20T11:20:47.616Z,12.30
2017-09-20T11:23:16.654Z,12.30
2017-09-20T11:25:45.158Z,12.40
2017-09-20T11:28:13.753Z,12.40
2017-09-20T11:30:43.797Z,12.40
2017-09-20T11:33:13.257Z,12.50
2017-09-20T11:35:42.384Z,12.50
2017-09-20T11:38:11.866Z,12.50
2017-09-20T11:40:40.400Z,12.40
2017-09-20T11:43:10.504Z,12.40
2017-09-20T11:45:38.942Z,12.40
2017-09-20T11:48:08.139Z,12.40
2017-09-20T11:50:39.857Z,12.30
2017-09-20T11:53:09.614Z,12.30
2017-09-20T11:55:38.284Z,12.40
2017-09-20T11:58:10.536Z,12.80
2017-09-20T12:00:38.963Z,12.90
2017-09-20T12:03:07.569Z,13.00
2017-09-20T12:05:37.302Z,13.00
2017-09-20T12:08:06.536Z,12.90
2017-09-20T12:10:39.593Z,12.90
2017-09-20T12:13:09.388Z,13.10
2017-09-20T12:15:38.419Z,13.10
2017-09-20T12:18:08.630Z,13.20
2017-09-20T12:20:37.367Z,13.30
2017-09-20T12:23:08.308Z,13.40
2017-09-20T12:25:37.957Z,13.40
2017-09-20T12:28:06.842Z,13.50
2017-09-20T12:30:37.717Z,13.60
2017-09-20T12:33:10.307Z,14.20
2017-09-20T12:35:39.484Z,14.10
2017-09-20T12:38:08.295Z,14.50
2017-09-20T12:40:38.189Z,14.30
2017-09-20T12:43:07.910Z,14.00
2017-09-20T12:45:38.338Z,13.90
2017-09-20T12:48:06.852Z,13.90
2017-09-20T12:50:35.674Z,14.30
2017-09-20T12:53:04.215Z,14.40
2017-09-20T12:55:35.266Z,14.70
2017-09-20T12:58:04.346Z,14.50
2017-09-20T13:00:35.681Z,14.60
2017-09-20T13:03:10.099Z,14.90
2017-09-20T13:05:41.761Z,15.30
2017-09-20T13:08:13.663Z,15.20
2017-09-20T13:10:42.414Z,15.20
2017-09-20T13:13:13.855Z,15.20
2017-09-20T13:15:43.507Z,15.10
2017-09-20T13:18:14.090Z,15.60
2017-09-20T13:20:44.210Z,15.60
2017-09-20T13:23:13.786Z,15.00
2017-09-20T13:25:42.200Z,15.00
2017-09-20T13:28:11.142Z,14.70
2017-09-20T13:30:43.243Z,14.40
2017-09-20T13:33:13.536Z,14.30
2017-09-20T13:35:42.884Z,14.50
2017-09-20T13:38:13.038Z,14.30
2017-09-20T13:40:42.150Z,14.30
2017-09-20T13:43:10.584Z,14.20
2017-09-20T13:45:39.981Z,14.20
2017-09-20T13:48:08.433Z,14.10
2017-09-20T13:50:38.103Z,13.90
2017-09-20T13:53:06.658Z,13.90
2017-09-20T13:55:35.855Z,13.90
2017-09-20T13:58:04.644Z,13.90
2017-09-20T14:00:33.252Z,14.00
2017-09-20T14:03:01.729Z,14.00
2017-09-20T14:05:30.211Z,14.00
2017-09-20T14:07:58.652Z,14.40
2017-09-20T14:10:27.051Z,14.80
2017-09-20T14:12:56.492Z,15.20
2017-09-20T14:15:25.896Z,15.20
2017-09-20T14:17:54.346Z,15.60
2017-09-20T14:20:23.509Z,15.00
2017-09-20T14:22:52.147Z,14.30
2017-09-20T14:25:20.530Z,14.10
2017-09-20T14:27:49.074Z,14.10
2017-09-20T14:30:18.009Z,14.20
2017-09-20T14:32:46.651Z,14.00
2017-09-20T14:35:15.798Z,14.00
2017-09-20T14:37:45.124Z,14.00
2017-09-20T14:40:14.660Z,14.10
2017-09-20T14:42:43.889Z,14.10
2017-09-20T14:45:12.349Z,14.10
2017-09-20T14:47:42.250Z,14.20
2017-09-20T14:50:11.522Z,14.20
2017-09-20T14:52:40.142Z,14.20
2017-09-20T14:55:09.387Z,14.20
2017-09-20T14:57:37.841Z,14.20
2017-09-20T15:00:06.439Z,14.20
2017-09-20T15:02:34.877Z,14.20
2017-09-20T15:05:04.397Z,14.20
2017-09-20T15:07:33.708Z,14.20
2017-09-20T15:10:02.152Z,14.70
2017-09-20T15:12:31.411Z,15.00
2017-09-20T15:15:00.399Z,15.10
2017-09-20T15:17:28.837Z,15.40
2017-09-20T15:19:58.051Z,15.60
2017-09-20T15:22:27.270Z,15.60
2017-09-20T15:24:55.778Z,15.30
2017-09-20T15:27:25.249Z,15.00
2017-09-20T15:29:54.409Z,14.70
2017-09-20T15:32:22.906Z,14.50
2017-09-20T15:34:51.461Z,14.30
2017-09-20T15:37:21.206Z,14.40
2017-09-20T15:39:50.637Z,14.40
2017-09-20T15:42:19.556Z,14.60
2017-09-20T15:44:48.052Z,14.70
2017-09-20T15:47:16.661Z,14.60
2017-09-20T15:49:45.865Z,14.90
2017-09-20T15:52:15.110Z,15.00
2017-09-20T15:54:43.651Z,15.00
2017-09-20T15:57:12.050Z,15.30
2017-09-20T15:59:40.519Z,15.40
2017-09-20T16:02:08.950Z,15.30
2017-09-20T16:04:37.494Z,15.20
2017-09-20T16:07:06.259Z,15.00
2017-09-20T16:09:34.841Z,14.90
2017-09-20T16:12:03.205Z,14.80
2017-09-20T16:14:32.528Z,14.80
2017-09-20T16:17:01.313Z,14.70
2017-09-20T16:19:29.817Z,14.70
2017-09-20T16:21:58.334Z,14.70
2017-09-20T16:24:26.753Z,14.60
2017-09-20T16:26:55.171Z,14.50
2017-09-20T16:29:23.931Z,14.50
2017-09-20T16:31:52.477Z,14.30
2017-09-20T16:34:21.732Z,14.20
2017-09-20T16:36:50.792Z,14.20
2017-09-20T16:39:19.209Z,14.10
2017-09-20T16:41:47.630Z,14.10
2017-09-20T16:44:16.552Z,14.00
2017-09-20T16:46:45.045Z,14.00
2017-09-20T16:49:13.469Z,13.90
2017-09-20T16:51:41.898Z,13.80
2017-09-20T16:54:10.339Z,13.70
2017-09-20T16:56:39.566Z,13.70
2017-09-20T16:59:08.171Z,13.60
2017-09-20T17:01:36.624Z,13.60
2017-09-20T17:04:05.822Z,13.50
2017-09-20T17:06:34.429Z,13.50
2017-09-20T17:09:03.058Z,13.50
2017-09-20T17:11:31.917Z,13.50
2017-09-20T17:14:00.641Z,13.50
2017-09-20T17:16:29.866Z,13.30
2017-09-20T17:18:58.524Z,13.30
2017-09-20T17:21:27.060Z,13.30
2017-09-20T17:23:55.527Z,13.30
2017-09-20T17:26:23.996Z,13.20
2017-09-20T17:28:52.461Z,13.20
2017-09-20T17:31:21.632Z,13.00
2017-09-20T17:33:50.453Z,13.00
2017-09-20T17:36:19.804Z,13.50
2017-09-20T17:38:48.200Z,13.50
2017-09-20T17:41:17.258Z,13.20
2017-09-20T17:43:45.846Z,12.90
2017-09-20T17:46:14.357Z,12.80
2017-09-20T17:48:42.776Z,12.70
2017-09-20T17:51:11.199Z,12.60
2017-09-20T17:53:40.388Z,12.50
2017-09-20T17:56:08.809Z,12.50
2017-09-20T17:58:38.555Z,12.40
2017-09-20T18:01:06.956Z,12.30
2017-09-20T18:03:36.163Z,12.20
2017-09-20T18:06:04.595Z,12.20
2017-09-20T18:08:33.801Z,12.00
2017-09-20T18:11:02.303Z,12.00
2017-09-20T18:13:30.886Z,12.00
2017-09-20T18:15:59.433Z,12.00
2017-09-20T18:18:27.851Z,12.00
2017-09-20T18:20:57.219Z,12.00
2017-09-20T18:23:26.430Z,12.00
2017-09-20T18:25:54.857Z,12.00
2017-09-20T18:28:23.994Z,12.10
2017-09-20T18:30:52.552Z,12.00
2017-09-20T18:33:21.291Z,12.00
2017-09-20T18:35:49.887Z,12.00
2017-09-20T18:38:18.294Z,12.00
2017-09-20T18:40:46.702Z,11.90
2017-09-20T18:43:16.662Z,11.90
2017-09-20T18:45:45.107Z,11.90
2017-09-20T18:48:13.652Z,12.00
2017-09-20T18:50:42.088Z,11.90
2017-09-20T18:53:10.494Z,11.90
2017-09-20T18:55:38.864Z,11.90
2017-09-20T18:58:08.193Z,12.00
2017-09-20T19:00:36.675Z,12.00
2017-09-20T19:03:05.094Z,12.00
2017-09-20T19:05:34.572Z,12.00
2017-09-20T19:08:02.973Z,12.00
2017-09-20T19:10:32.138Z,12.00
2017-09-20T19:13:01.038Z,12.00
2017-09-20T19:15:29.454Z,12.00
2017-09-20T19:17:57.831Z,12.00
2017-09-20T19:20:26.484Z,12.00
2017-09-20T19:22:55.061Z,12.10
2017-09-20T19:25:23.518Z,12.10
2017-09-20T19:27:52.022Z,12.10
2017-09-20T19:30:20.447Z,12.10
2017-09-20T19:32:48.848Z,12.10
2017-09-20T19:35:17.266Z,12.10
2017-09-20T19:37:46.627Z,12.00
2017-09-20T19:40:15.076Z,12.00
2017-09-20T19:42:43.512Z,12.00
2017-09-20T19:45:11.990Z,12.00
2017-09-20T19:47:40.436Z,12.10
2017-09-20T19:50:08.995Z,12.10
2017-09-20T19:52:37.412Z,12.10
2017-09-20T19:55:05.796Z,12.10
2017-09-20T19:57:34.232Z,12.10
2017-09-20T20:00:03.565Z,12.10
2017-09-20T20:02:32.292Z,12.00
2017-09-20T20:05:00.763Z,12.10
2017-09-20T20:07:29.177Z,12.00
2017-09-20T20:09:58.369Z,12.00
2017-09-20T20:12:27.610Z,11.90
2017-09-20T20:14:56.729Z,11.90
2017-09-20T20:17:25.119Z,11.90
2017-09-20T20:19:53.609Z,12.00
2017-09-20T20:22:22.006Z,12.00
2017-09-20T20:24:51.523Z,12.10
2017-09-20T20:27:20.175Z,12.10
2017-09-20T20:29:48.575Z,12.00
2017-09-20T20:32:17.743Z,12.00
2017-09-20T20:34:46.968Z,12.10
2017-09-20T20:37:16.112Z,12.10
2017-09-20T20:39:44.539Z,12.10
2017-09-20T20:42:13.877Z,12.10
2017-09-20T20:44:42.344Z,12.10
2017-09-20T20:47:10.741Z,12.10
2017-09-20T20:49:39.186Z,12.00
2017-09-20T20:52:08.389Z,12.00
2017-09-20T20:54:36.773Z,11.90
2017-09-20T20:57:06.338Z,11.90
2017-09-20T20:59:35.551Z,11.90
2017-09-20T21:02:03.935Z,11.90
2017-09-20T21:04:33.833Z,11.90
2017-09-20T21:07:02.202Z,11.90
2017-09-20T21:09:31.368Z,11.90
2017-09-20T21:11:59.820Z,11.90
2017-09-20T21:14:29.312Z,11.90
2017-09-20T21:16:58.521Z,11.90
2017-09-20T21:19:27.780Z,11.90
2017-09-20T21:21:56.199Z,11.90
2017-09-20T21:24:25.351Z,11.90
2017-09-20T21:26:54.545Z,11.90
2017-09-20T21:29:22.954Z,11.90
2017-09-20T21:31:51.382Z,11.90
2017-09-20T21:34:20.018Z,11.90
2017-09-20T21:36:48.469Z,12.00
2017-09-20T21:39:16.981Z,12.00
2017-09-20T21:41:45.737Z,11.90
2017-09-20T21:44:14.179Z,11.90
2017-09-20T21:46:42.624Z,11.90
2017-09-20T21:49:11.115Z,11.90
2017-09-20T21:51:40.289Z,11.80
2017-09-20T21:54:09.060Z,11.80
2017-09-20T21:56:37.623Z,11.80
2017-09-20T21:59:06.023Z,11.70
2017-09-20T22:01:34.437Z,11.80
2017-09-20T22:04:03.286Z,11.80
2017-09-20T22:06:31.745Z,11.80
2017-09-20T22:09:00.178Z,11.70
2017-09-20T22:11:28.861Z,11.80
2017-09-20T22:13:57.243Z,11.70
2017-09-20T22:16:37.748Z,11.70
2017-09-20T22:19:18.314Z,11.70
2017-09-20T22:21:58.693Z,11.60
2017-09-20T22:24:38.850Z,11.60
2017-09-20T22:27:07.604Z,11.60
2017-09-20T22:29:36.776Z,11.40
2017-09-20T22:32:05.153Z,11.40
2017-09-20T22:34:34.357Z,11.30
2017-09-20T22:37:03.504Z,11.30
2017-09-20T22:39:32.090Z,11.30
2017-09-20T22:42:00.823Z,11.20
2017-09-20T22:44:29.211Z,11.30
2017-09-20T22:46:58.389Z,11.30
2017-09-20T22:49:26.913Z,11.20
2017-09-20T22:51:55.365Z,11.20
2017-09-20T22:54:24.569Z,11.10
2017-09-20T22:56:53.027Z,11.10
2017-09-20T22:59:22.342Z,11.10
2017-09-20T23:01:51.507Z,11.10
2017-09-20T23:04:20.010Z,11.10
2017-09-20T23:06:48.404Z,11.00
2017-09-20T23:09:16.783Z,10.90
2017-09-20T23:11:46.085Z,10.70
2017-09-20T23:14:15.221Z,10.70
2017-09-20T23:16:43.643Z,10.70
2017-09-20T23:19:12.150Z,10.60
2017-09-20T23:21:41.308Z,10.60
2017-09-20T23:24:09.930Z,10.60
2017-09-20T23:26:39.132Z,10.60
2017-09-20T23:29:08.778Z,10.60
2017-09-20T23:31:37.167Z,10.60
2017-09-20T23:34:05.591Z,10.60
2017-09-20T23:36:34.758Z,10.60
2017-09-20T23:39:03.175Z,10.50
2017-09-20T23:41:32.503Z,10.60
2017-09-20T23:44:00.918Z,10.60
2017-09-20T23:46:29.308Z,10.60
2017-09-20T23:48:57.896Z,10.60
2017-09-20T23:51:27.086Z,10.60
2017-09-20T23:53:55.515Z,10.60
2017-09-20T23:56:24.095Z,10.60
2017-09-20T23:58:52.516Z,10.60
